RYR89J EGSS-EPMO
Flight info
| Callsign | RYR89J |
|---|---|
| Flight time | N/A |
| Altitude | 35000 |
| Route | CLN P44 RATLO M197 REDFA L620 TACHA DCT RKN L980 HLZ DCT SUBIX DCT OBOKU DCT DOSIX |
| Aircraft | B738/M-SDE2E3FGHIRWXY/LB1 |
Departure
| Time | 2026-05-06 16:16 |
|---|---|
| Airport | London Stansted Airport (EGSS) |
Arrival
| Time | N/A |
|---|---|
| Airport | Warsaw Modlin Airport (EPMO) |
| Time | Latitude | Longitude | Altitude | Speed | Heading |
|---|---|---|---|---|---|
| 2026-05-06 15:23 | 51.89170 | 0.25743 | 342 ft | 0 kts | 223° |
| 2026-05-06 15:57 | 51.89170 | 0.25744 | 342 ft | 2 kts | 223° |
| 2026-05-06 15:57 | 51.89182 | 0.25763 | 355 ft | 2 kts | 227° |
| 2026-05-06 15:57 | 51.89193 | 0.25783 | 350 ft | 2 kts | 233° |
| 2026-05-06 15:57 | 51.89202 | 0.25805 | 354 ft | 2 kts | 245° |
| 2026-05-06 15:58 | 51.89207 | 0.25830 | 353 ft | 2 kts | 271° |
| 2026-05-06 15:58 | 51.89202 | 0.25855 | 355 ft | 2 kts | 307° |
| 2026-05-06 15:58 | 51.89198 | 0.25863 | 355 ft | 0 kts | 312° |
| 2026-05-06 16:07 | 51.89221 | 0.25823 | 349 ft | 15 kts | 313° |
| 2026-05-06 16:08 | 51.89296 | 0.25694 | 344 ft | 15 kts | 311° |
| 2026-05-06 16:08 | 51.89351 | 0.25558 | 348 ft | 15 kts | 258° |
| 2026-05-06 16:08 | 51.89283 | 0.25440 | 347 ft | 14 kts | 223° |
| 2026-05-06 16:08 | 51.89215 | 0.25336 | 343 ft | 2 kts | 223° |
| 2026-05-06 16:09 | 51.89202 | 0.25309 | 349 ft | 10 kts | 240° |
| 2026-05-06 16:09 | 51.89234 | 0.25174 | 351 ft | 16 kts | 302° |
| 2026-05-06 16:09 | 51.89199 | 0.25016 | 348 ft | 16 kts | 230° |
| 2026-05-06 16:10 | 51.89079 | 0.24836 | 346 ft | 28 kts | 223° |
| 2026-05-06 16:10 | 51.88939 | 0.24624 | 342 ft | 27 kts | 223° |
| 2026-05-06 16:10 | 51.88807 | 0.24426 | 345 ft | 25 kts | 223° |
| 2026-05-06 16:10 | 51.88683 | 0.24239 | 346 ft | 23 kts | 223° |
| 2026-05-06 16:11 | 51.88566 | 0.24065 | 341 ft | 23 kts | 223° |
| 2026-05-06 16:11 | 51.88454 | 0.23896 | 340 ft | 22 kts | 223° |
| 2026-05-06 16:11 | 51.88330 | 0.23712 | 336 ft | 26 kts | 223° |
| 2026-05-06 16:11 | 51.88201 | 0.23516 | 336 ft | 26 kts | 223° |
| 2026-05-06 16:12 | 51.88061 | 0.23307 | 336 ft | 27 kts | 223° |
| 2026-05-06 16:12 | 51.87928 | 0.23108 | 334 ft | 25 kts | 223° |
| 2026-05-06 16:12 | 51.87804 | 0.22922 | 334 ft | 24 kts | 223° |
| 2026-05-06 16:12 | 51.87687 | 0.22746 | 335 ft | 23 kts | 223° |
| 2026-05-06 16:13 | 51.87574 | 0.22576 | 335 ft | 22 kts | 223° |
| 2026-05-06 16:13 | 51.87517 | 0.22457 | 333 ft | 12 kts | 272° |
| 2026-05-06 16:13 | 51.87562 | 0.22353 | 330 ft | 12 kts | 313° |
| 2026-05-06 16:13 | 51.87578 | 0.22325 | 326 ft | 0 kts | 314° |
| 2026-05-06 16:14 | 51.87598 | 0.22295 | 327 ft | 11 kts | 321° |
| 2026-05-06 16:15 | 51.87685 | 0.22274 | 326 ft | 13 kts | 17° |
| 2026-05-06 16:15 | 51.87722 | 0.22311 | 327 ft | 0 kts | 42° |
| 2026-05-06 16:15 | 51.87752 | 0.22355 | 330 ft | 24 kts | 42° |
| 2026-05-06 16:16 | 51.88049 | 0.22800 | 333 ft | 91 kts | 43° |
| 2026-05-06 16:16 | 51.88664 | 0.23721 | 337 ft | 147 kts | 40° |
| 2026-05-06 16:16 | 51.89469 | 0.24936 | 734 ft | 166 kts | 42° |
| 2026-05-06 16:16 | 51.90322 | 0.26261 | 1471 ft | 171 kts | 39° |
| 2026-05-06 16:17 | 51.91125 | 0.27635 | 2233 ft | 171 kts | 51° |
| 2026-05-06 16:17 | 51.91653 | 0.29529 | 2564 ft | 200 kts | 73° |
| 2026-05-06 16:17 | 51.91634 | 0.31914 | 2768 ft | 226 kts | 102° |
| 2026-05-06 16:17 | 51.90955 | 0.34321 | 3096 ft | 240 kts | 115° |
| 2026-05-06 16:18 | 51.90188 | 0.36737 | 3668 ft | 240 kts | 114° |
| 2026-05-06 16:18 | 51.89458 | 0.39148 | 3968 ft | 242 kts | 112° |
| 2026-05-06 16:18 | 51.88720 | 0.41615 | 3987 ft | 244 kts | 114° |
| 2026-05-06 16:18 | 51.87984 | 0.44095 | 4008 ft | 245 kts | 112° |
| 2026-05-06 16:19 | 51.87252 | 0.46577 | 4012 ft | 245 kts | 114° |
| 2026-05-06 16:19 | 51.86518 | 0.49077 | 4468 ft | 244 kts | 114° |
| 2026-05-06 16:19 | 51.85792 | 0.51550 | 5075 ft | 244 kts | 114° |
| 2026-05-06 16:19 | 51.85048 | 0.54083 | 5422 ft | 257 kts | 114° |
| 2026-05-06 16:20 | 51.84266 | 0.56741 | 5917 ft | 262 kts | 114° |
| 2026-05-06 16:20 | 51.83516 | 0.59404 | 5969 ft | 258 kts | 108° |
| 2026-05-06 16:20 | 51.83089 | 0.62206 | 5992 ft | 259 kts | 98° |
| 2026-05-06 16:20 | 51.82963 | 0.65140 | 5992 ft | 263 kts | 88° |
| 2026-05-06 16:21 | 51.83055 | 0.68088 | 5995 ft | 263 kts | 85° |
| 2026-05-06 16:21 | 51.83184 | 0.70998 | 5994 ft | 262 kts | 85° |
| 2026-05-06 16:21 | 51.83319 | 0.73937 | 5985 ft | 262 kts | 85° |
| 2026-05-06 16:21 | 51.83442 | 0.76878 | 5982 ft | 262 kts | 86° |
| 2026-05-06 16:22 | 51.83559 | 0.79815 | 5985 ft | 261 kts | 86° |
| 2026-05-06 16:22 | 51.83669 | 0.82738 | 6094 ft | 255 kts | 86° |
| 2026-05-06 16:22 | 51.83772 | 0.85569 | 6541 ft | 254 kts | 86° |
| 2026-05-06 16:22 | 51.83878 | 0.88492 | 7005 ft | 265 kts | 86° |
| 2026-05-06 16:23 | 51.83987 | 0.91520 | 7465 ft | 272 kts | 85° |
| 2026-05-06 16:23 | 51.84127 | 0.95448 | 8033 ft | 276 kts | 86° |
| 2026-05-06 16:23 | 51.84578 | 1.08234 | 9920 ft | 293 kts | 85° |
| 2026-05-06 16:23 | 51.84707 | 1.11997 | 10474 ft | 299 kts | 85° |
| 2026-05-06 16:24 | 51.84780 | 1.13906 | 10732 ft | 303 kts | 83° |
| 2026-05-06 16:24 | 51.84790 | 1.14074 | 10755 ft | 303 kts | 82° |
| 2026-05-06 16:24 | 51.85355 | 1.17316 | 11186 ft | 304 kts | 65° |
| 2026-05-06 16:24 | 51.85421 | 1.17564 | 11222 ft | 304 kts | 65° |
| 2026-05-06 16:25 | 51.88151 | 1.27364 | 12646 ft | 308 kts | 64° |
| 2026-05-06 16:25 | 51.88629 | 1.29092 | 12905 ft | 309 kts | 65° |
| 2026-05-06 16:25 | 51.90719 | 1.36810 | 14017 ft | 311 kts | 65° |
| 2026-05-06 16:25 | 51.92863 | 1.44812 | 15082 ft | 313 kts | 65° |
| 2026-05-06 16:26 | 51.94877 | 1.52335 | 16145 ft | 322 kts | 65° |
| 2026-05-06 16:26 | 51.95775 | 1.55695 | 16627 ft | 329 kts | 65° |
| 2026-05-06 16:26 | 51.96692 | 1.59131 | 17120 ft | 335 kts | 66° |
| 2026-05-06 16:26 | 51.97622 | 1.62630 | 17598 ft | 337 kts | 66° |
| 2026-05-06 16:27 | 51.98549 | 1.66129 | 18082 ft | 338 kts | 66° |
| 2026-05-06 16:27 | 51.99402 | 1.69688 | 18520 ft | 339 kts | 73° |
| 2026-05-06 16:27 | 52.00024 | 1.73380 | 18962 ft | 340 kts | 76° |
| 2026-05-06 16:27 | 52.00588 | 1.77108 | 19385 ft | 340 kts | 76° |
| 2026-05-06 16:28 | 52.01142 | 1.80848 | 19830 ft | 343 kts | 76° |
| 2026-05-06 16:28 | 52.01709 | 1.84645 | 20253 ft | 350 kts | 76° |
| 2026-05-06 16:28 | 52.02304 | 1.88580 | 20364 ft | 368 kts | 76° |
| 2026-05-06 16:28 | 52.02929 | 1.92666 | 20498 ft | 385 kts | 76° |
| 2026-05-06 16:29 | 52.03600 | 1.97020 | 20616 ft | 401 kts | 76° |
| 2026-05-06 16:29 | 52.04281 | 2.01433 | 20740 ft | 415 kts | 76° |
| 2026-05-06 16:29 | 52.04995 | 2.06061 | 20895 ft | 428 kts | 76° |
| 2026-05-06 16:29 | 52.05725 | 2.10799 | 21261 ft | 434 kts | 76° |
| 2026-05-06 16:30 | 52.06462 | 2.15599 | 21768 ft | 437 kts | 76° |
| 2026-05-06 16:30 | 52.06949 | 2.18776 | 22079 ft | 439 kts | 76° |
| 2026-05-06 16:30 | 52.07934 | 2.25236 | 22783 ft | 441 kts | 76° |
| 2026-05-06 16:30 | 52.08675 | 2.30104 | 23202 ft | 445 kts | 76° |
| 2026-05-06 16:31 | 52.09418 | 2.35002 | 23682 ft | 447 kts | 76° |
| 2026-05-06 16:31 | 52.10164 | 2.39932 | 24009 ft | 451 kts | 76° |
| 2026-05-06 16:31 | 52.10913 | 2.44900 | 24388 ft | 453 kts | 76° |
| 2026-05-06 16:31 | 52.11679 | 2.49900 | 24681 ft | 458 kts | 75° |
| 2026-05-06 16:32 | 52.12550 | 2.54831 | 25032 ft | 460 kts | 73° |
| 2026-05-06 16:32 | 52.13505 | 2.59824 | 25392 ft | 463 kts | 73° |
| 2026-05-06 16:32 | 52.14483 | 2.64819 | 25820 ft | 463 kts | 73° |
| 2026-05-06 16:32 | 52.15459 | 2.69819 | 26181 ft | 465 kts | 73° |
| 2026-05-06 16:33 | 52.16430 | 2.74859 | 26510 ft | 467 kts | 73° |
| 2026-05-06 16:33 | 52.17393 | 2.79929 | 26827 ft | 470 kts | 73° |
| 2026-05-06 16:33 | 52.18356 | 2.85043 | 27167 ft | 472 kts | 73° |
| 2026-05-06 16:34 | 52.20276 | 2.95324 | 27857 ft | 475 kts | 74° |
| 2026-05-06 16:34 | 52.21235 | 3.00484 | 28160 ft | 476 kts | 73° |
| 2026-05-06 16:34 | 52.22196 | 3.05659 | 28477 ft | 478 kts | 73° |
| 2026-05-06 16:34 | 52.23160 | 3.10859 | 28811 ft | 479 kts | 74° |
| 2026-05-06 16:35 | 52.24112 | 3.16013 | 29211 ft | 478 kts | 74° |
| 2026-05-06 16:35 | 52.25032 | 3.21207 | 29722 ft | 476 kts | 78° |
| 2026-05-06 16:35 | 52.25564 | 3.26534 | 30012 ft | 475 kts | 87° |
| 2026-05-06 16:35 | 52.25575 | 3.31907 | 30349 ft | 473 kts | 94° |
| 2026-05-06 16:36 | 52.25433 | 3.37277 | 30667 ft | 473 kts | 94° |
| 2026-05-06 16:36 | 52.25277 | 3.42632 | 31042 ft | 471 kts | 94° |
| 2026-05-06 16:36 | 52.25124 | 3.47972 | 31319 ft | 472 kts | 95° |
| 2026-05-06 16:36 | 52.24980 | 3.53312 | 31699 ft | 469 kts | 94° |
| 2026-05-06 16:37 | 52.24846 | 3.58616 | 32085 ft | 467 kts | 94° |
| 2026-05-06 16:37 | 52.24717 | 3.63927 | 32269 ft | 470 kts | 93° |
| 2026-05-06 16:37 | 52.24591 | 3.69243 | 32719 ft | 466 kts | 94° |
| 2026-05-06 16:37 | 52.24466 | 3.74526 | 33012 ft | 467 kts | 94° |
| 2026-05-06 16:38 | 52.24338 | 3.79826 | 33280 ft | 466 kts | 93° |
| 2026-05-06 16:38 | 52.24209 | 3.85092 | 33684 ft | 464 kts | 94° |
| 2026-05-06 16:38 | 52.24077 | 3.90378 | 33856 ft | 466 kts | 94° |
| 2026-05-06 16:38 | 52.23942 | 3.95581 | 34222 ft | 463 kts | 94° |
| 2026-05-06 16:39 | 52.23806 | 4.00802 | 34545 ft | 460 kts | 94° |
| 2026-05-06 16:39 | 52.23666 | 4.06015 | 34750 ft | 460 kts | 94° |
| 2026-05-06 16:39 | 52.23524 | 4.11235 | 34901 ft | 461 kts | 94° |
| 2026-05-06 16:40 | 52.23230 | 4.21734 | 34915 ft | 464 kts | 95° |
| 2026-05-06 16:40 | 52.22926 | 4.32316 | 34922 ft | 468 kts | 94° |
| 2026-05-06 16:41 | 52.22612 | 4.42956 | 34910 ft | 471 kts | 95° |
| 2026-05-06 16:41 | 52.22287 | 4.53635 | 34903 ft | 471 kts | 95° |
| 2026-05-06 16:42 | 52.21956 | 4.64219 | 34891 ft | 463 kts | 95° |
| 2026-05-06 16:42 | 52.21619 | 4.74675 | 34913 ft | 460 kts | 95° |
| 2026-05-06 16:43 | 52.21273 | 4.85085 | 34919 ft | 460 kts | 95° |
| 2026-05-06 16:43 | 52.20917 | 4.95531 | 34734 ft | 467 kts | 95° |
| 2026-05-06 16:44 | 52.20545 | 5.06134 | 34861 ft | 471 kts | 95° |
| 2026-05-06 16:44 | 52.20160 | 5.16874 | 34906 ft | 477 kts | 95° |
| 2026-05-06 16:45 | 52.19767 | 5.27628 | 34891 ft | 471 kts | 96° |
| 2026-05-06 16:45 | 52.19369 | 5.38221 | 34902 ft | 466 kts | 96° |
| 2026-05-06 16:46 | 52.18964 | 5.48717 | 34893 ft | 466 kts | 96° |
| 2026-05-06 16:46 | 52.18547 | 5.59262 | 34907 ft | 467 kts | 96° |
| 2026-05-06 16:47 | 52.18120 | 5.69838 | 34912 ft | 469 kts | 96° |
| 2026-05-06 16:47 | 52.17680 | 5.80491 | 34914 ft | 471 kts | 96° |
| 2026-05-06 16:48 | 52.17230 | 5.91173 | 34907 ft | 473 kts | 96° |
| 2026-05-06 16:48 | 52.16768 | 6.01906 | 34908 ft | 475 kts | 97° |
| 2026-05-06 16:49 | 52.16296 | 6.12656 | 34901 ft | 477 kts | 97° |
| 2026-05-06 16:49 | 52.15812 | 6.23434 | 34898 ft | 478 kts | 97° |
| 2026-05-06 16:50 | 52.15321 | 6.34173 | 34882 ft | 479 kts | 97° |
| 2026-05-06 16:50 | 52.14815 | 6.45011 | 34868 ft | 480 kts | 98° |
| 2026-05-06 16:51 | 52.14300 | 6.55855 | 34878 ft | 480 kts | 98° |
| 2026-05-06 16:51 | 52.13776 | 6.66702 | 34879 ft | 481 kts | 98° |
| 2026-05-06 16:52 | 52.13298 | 6.77491 | 34864 ft | 482 kts | 94° |
| 2026-05-06 16:52 | 52.13787 | 6.88426 | 34876 ft | 485 kts | 87° |
| 2026-05-06 16:53 | 52.14407 | 6.99377 | 34866 ft | 485 kts | 88° |
| 2026-05-06 16:53 | 52.14871 | 7.08489 | 34869 ft | 486 kts | 88° |
| 2026-05-06 16:54 | 52.15499 | 7.21258 | 34866 ft | 487 kts | 88° |
| 2026-05-06 16:54 | 52.16036 | 7.32247 | 34870 ft | 487 kts | 88° |
| 2026-05-06 16:55 | 52.16482 | 7.41467 | 34856 ft | 488 kts | 88° |
| 2026-05-06 16:55 | 52.17006 | 7.52503 | 34878 ft | 488 kts | 88° |
| 2026-05-06 16:56 | 52.17517 | 7.63460 | 34882 ft | 489 kts | 88° |
| 2026-05-06 16:56 | 52.17974 | 7.74544 | 34885 ft | 489 kts | 90° |
| 2026-05-06 16:57 | 52.18365 | 7.85627 | 34878 ft | 490 kts | 89° |
| 2026-05-06 16:57 | 52.18803 | 7.96749 | 34863 ft | 491 kts | 89° |
| 2026-05-06 16:58 | 52.19233 | 8.07866 | 34863 ft | 492 kts | 89° |
| 2026-05-06 16:58 | 52.19649 | 8.18996 | 34859 ft | 492 kts | 89° |
| 2026-05-06 16:59 | 52.20053 | 8.30143 | 34847 ft | 493 kts | 89° |
| 2026-05-06 16:59 | 52.20463 | 8.41253 | 34828 ft | 493 kts | 89° |
| 2026-05-06 17:00 | 52.20869 | 8.52416 | 34831 ft | 493 kts | 89° |
| 2026-05-06 17:00 | 52.21269 | 8.63590 | 34853 ft | 494 kts | 89° |
| 2026-05-06 17:01 | 52.21660 | 8.74724 | 34840 ft | 494 kts | 89° |
| 2026-05-06 17:01 | 52.22044 | 8.85924 | 34829 ft | 495 kts | 89° |
| 2026-05-06 17:02 | 52.22420 | 8.97136 | 34830 ft | 495 kts | 89° |
| 2026-05-06 17:02 | 52.22785 | 9.08330 | 34831 ft | 495 kts | 89° |
| 2026-05-06 17:03 | 52.23157 | 9.19551 | 34835 ft | 494 kts | 89° |
| 2026-05-06 17:03 | 52.23515 | 9.30765 | 34827 ft | 494 kts | 89° |
| 2026-05-06 17:04 | 52.23838 | 9.41888 | 34843 ft | 494 kts | 89° |
| 2026-05-06 17:04 | 52.24153 | 9.53122 | 34835 ft | 496 kts | 89° |
| 2026-05-06 17:05 | 52.24464 | 9.64355 | 34826 ft | 495 kts | 89° |
| 2026-05-06 17:05 | 52.24767 | 9.75556 | 34827 ft | 493 kts | 90° |
| 2026-05-06 17:06 | 52.25060 | 9.86713 | 34826 ft | 491 kts | 89° |
| 2026-05-06 17:06 | 52.26106 | 9.97737 | 34822 ft | 491 kts | 79° |
| 2026-05-06 17:07 | 52.27572 | 10.08620 | 34824 ft | 490 kts | 78° |
| 2026-05-06 17:07 | 52.28997 | 10.19509 | 34809 ft | 490 kts | 79° |
| 2026-05-06 17:08 | 52.30357 | 10.30411 | 34822 ft | 489 kts | 80° |
| 2026-05-06 17:08 | 52.31692 | 10.41323 | 34814 ft | 490 kts | 80° |
| 2026-05-06 17:09 | 52.33016 | 10.52211 | 34801 ft | 491 kts | 80° |
| 2026-05-06 17:09 | 52.34343 | 10.63176 | 34806 ft | 492 kts | 80° |
| 2026-05-06 17:10 | 52.35666 | 10.74190 | 34813 ft | 493 kts | 80° |
| 2026-05-06 17:10 | 52.36591 | 10.85299 | 34805 ft | 492 kts | 89° |
| 2026-05-06 17:11 | 52.36761 | 10.96489 | 34814 ft | 492 kts | 91° |
| 2026-05-06 17:11 | 52.36866 | 11.07634 | 34797 ft | 493 kts | 91° |
| 2026-05-06 17:12 | 52.37021 | 11.18838 | 34808 ft | 493 kts | 90° |
| 2026-05-06 17:12 | 52.37204 | 11.30046 | 34814 ft | 493 kts | 90° |
| 2026-05-06 17:13 | 52.37386 | 11.41273 | 34802 ft | 493 kts | 90° |
| 2026-05-06 17:13 | 52.37555 | 11.52491 | 34793 ft | 493 kts | 91° |
| 2026-05-06 17:14 | 52.37711 | 11.63694 | 34804 ft | 492 kts | 91° |
| 2026-05-06 17:14 | 52.37855 | 11.74871 | 34815 ft | 491 kts | 91° |
| 2026-05-06 17:15 | 52.37989 | 11.86039 | 34819 ft | 490 kts | 91° |
| 2026-05-06 17:15 | 52.38112 | 11.97207 | 34813 ft | 490 kts | 91° |
| 2026-05-06 17:16 | 52.38224 | 12.08357 | 34812 ft | 489 kts | 91° |
| 2026-05-06 17:16 | 52.38326 | 12.19491 | 34829 ft | 489 kts | 91° |
| 2026-05-06 17:17 | 52.38417 | 12.30542 | 34832 ft | 489 kts | 91° |
| 2026-05-06 17:17 | 52.38497 | 12.41664 | 34815 ft | 489 kts | 92° |
| 2026-05-06 17:18 | 52.38568 | 12.52787 | 34802 ft | 488 kts | 92° |
| 2026-05-06 17:18 | 52.38628 | 12.63903 | 34820 ft | 488 kts | 92° |
| 2026-05-06 17:19 | 52.38678 | 12.75022 | 34828 ft | 487 kts | 92° |
| 2026-05-06 17:19 | 52.38716 | 12.86113 | 34829 ft | 487 kts | 92° |
| 2026-05-06 17:20 | 52.38745 | 12.97221 | 34823 ft | 487 kts | 92° |
| 2026-05-06 17:20 | 52.38763 | 13.08313 | 34814 ft | 487 kts | 92° |
| 2026-05-06 17:21 | 52.38771 | 13.19405 | 34831 ft | 487 kts | 92° |
| 2026-05-06 17:21 | 52.38769 | 13.30501 | 34830 ft | 487 kts | 92° |
| 2026-05-06 17:22 | 52.38756 | 13.41582 | 34838 ft | 487 kts | 93° |
| 2026-05-06 17:22 | 52.38733 | 13.52606 | 34810 ft | 487 kts | 93° |
| 2026-05-06 17:23 | 52.38700 | 13.63717 | 34828 ft | 487 kts | 93° |
| 2026-05-06 17:23 | 52.38656 | 13.74806 | 34832 ft | 487 kts | 93° |
| 2026-05-06 17:24 | 52.38602 | 13.85908 | 34832 ft | 487 kts | 93° |
| 2026-05-06 17:24 | 52.38537 | 13.97006 | 34829 ft | 487 kts | 93° |
| 2026-05-06 17:25 | 52.38463 | 14.08107 | 34826 ft | 487 kts | 94° |
| 2026-05-06 17:25 | 52.38378 | 14.19191 | 34825 ft | 486 kts | 94° |
| 2026-05-06 17:26 | 52.38284 | 14.30191 | 34824 ft | 485 kts | 94° |
| 2026-05-06 17:26 | 52.38180 | 14.41233 | 34832 ft | 485 kts | 94° |
| 2026-05-06 17:27 | 52.38068 | 14.52254 | 34820 ft | 483 kts | 94° |
| 2026-05-06 17:27 | 52.37924 | 14.63240 | 34818 ft | 482 kts | 95° |
| 2026-05-06 17:28 | 52.37657 | 14.74196 | 34819 ft | 481 kts | 96° |
| 2026-05-06 17:28 | 52.37358 | 14.85129 | 34818 ft | 480 kts | 96° |
| 2026-05-06 17:29 | 52.37065 | 14.96045 | 34826 ft | 480 kts | 96° |
| 2026-05-06 17:29 | 52.36772 | 15.06968 | 34910 ft | 480 kts | 97° |
| 2026-05-06 17:30 | 52.36472 | 15.17844 | 34820 ft | 482 kts | 97° |
| 2026-05-06 17:30 | 52.36160 | 15.28825 | 34822 ft | 483 kts | 97° |
| 2026-05-06 17:31 | 52.35838 | 15.39796 | 34816 ft | 483 kts | 97° |
| 2026-05-06 17:31 | 52.35505 | 15.50787 | 34817 ft | 484 kts | 97° |
| 2026-05-06 17:32 | 52.35161 | 15.61780 | 34806 ft | 484 kts | 97° |
| 2026-05-06 17:32 | 52.34806 | 15.72798 | 34811 ft | 485 kts | 97° |
| 2026-05-06 17:33 | 52.34441 | 15.83819 | 34807 ft | 485 kts | 97° |
| 2026-05-06 17:33 | 52.34065 | 15.94863 | 34816 ft | 486 kts | 97° |
| 2026-05-06 17:34 | 52.33678 | 16.05904 | 34792 ft | 486 kts | 97° |
| 2026-05-06 17:34 | 52.33284 | 16.16882 | 34809 ft | 486 kts | 98° |
| 2026-05-06 17:35 | 52.32877 | 16.27923 | 34811 ft | 487 kts | 98° |
| 2026-05-06 17:35 | 52.32458 | 16.38983 | 34809 ft | 487 kts | 98° |
| 2026-05-06 17:36 | 52.31811 | 16.55574 | 34776 ft | 487 kts | 98° |
| 2026-05-06 17:36 | 52.31443 | 16.64759 | 34799 ft | 487 kts | 98° |
| 2026-05-06 17:37 | 52.31364 | 16.66721 | 34794 ft | 487 kts | 98° |